createdAt,value
2022-08-02T00:01:30.451Z,23.63
2022-08-02T00:03:56.837Z,23.58
2022-08-02T00:06:23.189Z,23.57
2022-08-02T00:08:49.563Z,23.59
2022-08-02T00:11:15.943Z,23.49
2022-08-02T00:13:42.356Z,23.43
2022-08-02T00:16:08.739Z,23.46
2022-08-02T00:18:35.112Z,23.42
2022-08-02T00:21:01.557Z,23.35
2022-08-02T00:23:27.979Z,23.25
2022-08-02T00:25:55.924Z,23.19
2022-08-02T00:28:26.843Z,23.20
2022-08-02T00:30:47.151Z,23.23
2022-08-02T00:33:13.537Z,23.21
2022-08-02T00:35:40.602Z,23.22
2022-08-02T00:38:06.319Z,23.26
2022-08-02T00:40:32.711Z,23.27
2022-08-02T00:42:59.115Z,23.18
2022-08-02T00:46:02.711Z,23.17
2022-08-02T00:47:51.982Z,23.14
2022-08-02T00:50:18.442Z,23.15
2022-08-02T00:52:44.876Z,23.14
2022-08-02T00:55:11.308Z,23.13
2022-08-02T00:57:37.697Z,23.09
2022-08-02T01:00:04.073Z,23.07
2022-08-02T01:02:30.434Z,23.05
2022-08-02T01:04:56.866Z,22.97
2022-08-02T01:07:23.272Z,22.90
2022-08-02T01:09:49.706Z,22.89
2022-08-02T01:12:16.317Z,22.83
2022-08-02T01:14:42.570Z,22.82
2022-08-02T01:17:08.948Z,22.77
2022-08-02T01:19:35.328Z,22.73
2022-08-02T01:22:01.694Z,22.70
2022-08-02T01:24:28.051Z,22.64
2022-08-02T01:26:54.461Z,22.58
2022-08-02T01:29:20.862Z,22.57
2022-08-02T01:31:47.241Z,22.52
2022-08-02T01:34:13.607Z,22.48
2022-08-02T01:36:40.055Z,22.43
2022-08-02T01:39:06.417Z,22.36
2022-08-02T01:41:32.789Z,22.29
2022-08-02T01:43:59.256Z,22.29
2022-08-02T01:46:25.639Z,22.22
2022-08-02T01:48:52.074Z,22.20
2022-08-02T01:51:18.409Z,22.20
2022-08-02T01:53:44.792Z,22.19
2022-08-02T01:56:11.184Z,22.16
2022-08-02T01:58:37.577Z,22.11
2022-08-02T02:01:04.011Z,22.05
2022-08-02T02:03:30.354Z,22.07
2022-08-02T02:05:56.736Z,22.06
2022-08-02T02:08:26.920Z,22.01
2022-08-02T02:10:49.500Z,22.00
2022-08-02T02:13:15.880Z,21.95
2022-08-02T02:15:42.371Z,21.88
2022-08-02T02:18:13.154Z,21.81
2022-08-02T02:20:35.119Z,21.78
2022-08-02T02:23:01.568Z,21.75
2022-08-02T02:25:31.661Z,21.69
2022-08-02T02:27:54.356Z,21.66
2022-08-02T02:30:20.764Z,21.66
2022-08-02T02:32:47.197Z,21.64
2022-08-02T02:35:13.577Z,21.56
2022-08-02T02:37:40.055Z,21.61
2022-08-02T02:40:06.431Z,21.64
2022-08-02T02:42:32.794Z,21.62
2022-08-02T02:44:59.261Z,21.59
2022-08-02T02:47:41.607Z,21.58
2022-08-02T02:49:52.078Z,21.56
2022-08-02T02:52:18.464Z,21.58
2022-08-02T02:54:44.830Z,21.61
2022-08-02T02:57:11.321Z,21.56
2022-08-02T02:59:42.571Z,21.49
2022-08-02T03:02:04.123Z,21.35
2022-08-02T03:04:36.025Z,21.26
2022-08-02T03:06:56.868Z,21.24
2022-08-02T03:09:23.277Z,21.25
2022-08-02T03:11:49.635Z,21.25
2022-08-02T03:14:16.025Z,21.30
2022-08-02T03:16:42.385Z,21.28
2022-08-02T03:19:08.776Z,21.27
2022-08-02T03:21:35.134Z,21.29
2022-08-02T03:24:01.510Z,21.34
2022-08-02T03:26:27.908Z,21.26
2022-08-02T03:28:54.339Z,21.25
2022-08-02T03:31:20.715Z,21.25
2022-08-02T03:33:47.102Z,21.25
2022-08-02T03:36:13.499Z,21.27
2022-08-02T03:38:39.871Z,21.35
2022-08-02T03:41:06.260Z,21.40
2022-08-02T03:43:32.661Z,21.43
2022-08-02T03:45:59.027Z,21.39
2022-08-02T03:48:34.178Z,21.38
2022-08-02T03:50:51.774Z,21.38
2022-08-02T03:53:20.142Z,21.32
2022-08-02T03:55:44.503Z,21.17
2022-08-02T03:58:10.925Z,21.03
2022-08-02T04:00:37.371Z,20.92
2022-08-02T04:03:03.724Z,20.90
2022-08-02T04:05:30.107Z,20.96
2022-08-02T04:08:33.081Z,21.03
2022-08-02T04:10:22.890Z,21.11
2022-08-02T04:12:49.275Z,21.18
2022-08-02T04:15:15.642Z,21.14
2022-08-02T04:17:42.033Z,21.23
2022-08-02T04:20:08.397Z,21.28
2022-08-02T04:22:34.766Z,21.25
2022-08-02T04:25:01.183Z,21.15
2022-08-02T04:28:15.441Z,21.15
2022-08-02T04:29:54.039Z,21.43
2022-08-02T04:32:20.405Z,21.72
2022-08-02T04:35:11.372Z,21.96
2022-08-02T04:37:13.200Z,21.98
2022-08-02T04:39:39.581Z,21.83
2022-08-02T04:42:05.996Z,21.80
2022-08-02T04:44:32.345Z,21.78
2022-08-02T04:46:58.763Z,21.63
2022-08-02T04:49:25.239Z,21.56
2022-08-02T04:51:51.548Z,21.64
2022-08-02T04:54:17.932Z,21.95
2022-08-02T04:56:44.394Z,22.14
2022-08-02T04:59:10.751Z,22.13
2022-08-02T05:01:37.126Z,22.24
2022-08-02T05:04:03.544Z,22.22
2022-08-02T05:06:29.908Z,22.17
2022-08-02T05:08:56.298Z,22.11
2022-08-02T05:11:23.050Z,22.13
2022-08-02T05:13:58.701Z,22.22
2022-08-02T05:16:15.464Z,22.37
2022-08-02T05:18:41.829Z,22.50
2022-08-02T05:21:08.189Z,22.79
2022-08-02T05:23:34.595Z,23.03
2022-08-02T05:26:00.963Z,23.14
2022-08-02T05:28:27.406Z,23.15
2022-08-02T05:30:53.795Z,23.25
2022-08-02T05:33:20.156Z,23.42
2022-08-02T05:35:46.545Z,23.54
2022-08-02T05:38:12.966Z,23.64
2022-08-02T05:40:54.523Z,23.71
2022-08-02T05:43:05.723Z,23.88
2022-08-02T05:45:32.139Z,24.04
2022-08-02T05:47:58.563Z,24.17
2022-08-02T05:50:24.953Z,24.34
2022-08-02T05:52:51.315Z,24.53
2022-08-02T05:55:17.693Z,24.75
2022-08-02T05:57:44.093Z,24.93
2022-08-02T06:00:10.452Z,25.09
2022-08-02T06:02:36.858Z,25.25
2022-08-02T06:05:03.388Z,25.44
2022-08-02T06:07:29.607Z,25.64
2022-08-02T06:09:55.974Z,25.75
2022-08-02T06:12:22.339Z,25.79
2022-08-02T06:14:54.035Z,25.90
2022-08-02T06:17:15.112Z,26.14
2022-08-02T06:19:51.466Z,26.35
2022-08-02T06:22:31.323Z,26.45
2022-08-02T06:24:34.344Z,26.55
2022-08-02T06:27:00.707Z,26.78
2022-08-02T06:29:27.105Z,27.08
2022-08-02T06:31:53.511Z,27.27
2022-08-02T06:34:19.978Z,27.46
2022-08-02T06:36:46.419Z,27.73
2022-08-02T06:39:12.829Z,28.05
2022-08-02T06:41:39.225Z,28.10
2022-08-02T06:44:42.037Z,28.29
2022-08-02T06:46:37.823Z,28.67
2022-08-02T06:48:58.608Z,28.98
2022-08-02T06:51:25.009Z,29.17
2022-08-02T06:53:51.430Z,29.27
2022-08-02T06:56:17.819Z,29.37
2022-08-02T06:58:44.216Z,29.49
2022-08-02T07:01:10.674Z,29.62
2022-08-02T07:03:37.029Z,29.70
2022-08-02T07:06:03.414Z,29.80
2022-08-02T07:08:29.786Z,29.82
2022-08-02T07:10:56.256Z,29.87
2022-08-02T07:13:22.700Z,30.01
2022-08-02T07:15:49.506Z,30.13
2022-08-02T07:18:15.565Z,30.27
2022-08-02T07:20:41.950Z,30.46
2022-08-02T07:23:08.342Z,30.58
2022-08-02T07:26:01.998Z,30.64
2022-08-02T07:28:01.125Z,30.77
2022-08-02T07:30:27.513Z,30.87
2022-08-02T07:32:53.878Z,30.97
2022-08-02T07:35:20.262Z,30.98
2022-08-02T07:37:54.722Z,31.00
2022-08-02T07:40:13.961Z,31.05
2022-08-02T07:42:39.404Z,31.19
2022-08-02T07:45:05.782Z,31.34
2022-08-02T07:47:32.165Z,31.49
2022-08-02T07:49:58.556Z,31.55
2022-08-02T07:52:24.919Z,31.59
2022-08-02T07:54:51.348Z,31.66
2022-08-02T07:57:17.710Z,31.60
2022-08-02T07:59:44.106Z,31.54
2022-08-02T08:02:10.658Z,31.60
2022-08-02T08:04:36.915Z,31.73
2022-08-02T08:07:03.294Z,31.87
2022-08-02T08:09:29.704Z,31.99
2022-08-02T08:11:56.105Z,32.09
2022-08-02T08:14:22.604Z,32.22
2022-08-02T08:16:49.034Z,32.35
2022-08-02T08:19:15.462Z,32.43
2022-08-02T08:21:41.823Z,32.50
2022-08-02T08:24:08.189Z,32.48
2022-08-02T08:26:34.619Z,32.50
2022-08-02T08:29:01.096Z,32.73
2022-08-02T08:31:27.529Z,32.87
2022-08-02T08:33:53.895Z,32.94
2022-08-02T08:36:20.252Z,32.96
2022-08-02T08:38:46.621Z,32.98
2022-08-02T08:41:13.057Z,33.20
2022-08-02T08:43:40.536Z,33.30
2022-08-02T08:46:06.908Z,33.28
2022-08-02T08:48:33.381Z,33.25
2022-08-02T08:50:59.779Z,33.31
2022-08-02T08:53:36.731Z,33.28
2022-08-02T08:55:52.680Z,33.29
2022-08-02T08:58:19.052Z,33.21
2022-08-02T09:00:45.441Z,33.24
2022-08-02T09:03:11.806Z,33.33
2022-08-02T09:05:38.167Z,33.44
2022-08-02T09:08:04.554Z,33.57
2022-08-02T09:10:31.030Z,33.70
2022-08-02T09:12:57.406Z,33.72
2022-08-02T09:15:23.785Z,33.73
2022-08-02T09:17:50.149Z,33.62
2022-08-02T09:20:16.580Z,33.55
2022-08-02T09:22:42.932Z,33.49
2022-08-02T09:25:09.366Z,33.35
2022-08-02T09:27:35.757Z,33.62
2022-08-02T09:30:12.411Z,33.80
2022-08-02T09:32:28.494Z,34.07
2022-08-02T09:34:54.894Z,34.11
2022-08-02T09:37:21.325Z,34.20
2022-08-02T09:39:47.979Z,34.33
2022-08-02T09:42:14.568Z,34.32
2022-08-02T09:44:40.451Z,34.18
2022-08-02T09:47:06.827Z,34.23
2022-08-02T09:49:33.234Z,34.28
2022-08-02T09:51:59.588Z,34.32
2022-08-02T09:54:26.015Z,34.20
2022-08-02T09:56:52.482Z,34.24
2022-08-02T09:59:18.842Z,34.48
2022-08-02T10:01:50.753Z,34.56
2022-08-02T10:04:19.938Z,34.57
2022-08-02T10:06:37.964Z,34.62
2022-08-02T10:09:04.382Z,34.57
2022-08-02T10:11:30.765Z,34.44
2022-08-02T10:13:57.123Z,34.47
2022-08-02T10:16:23.528Z,34.68
2022-08-02T10:18:49.911Z,34.69
2022-08-02T10:21:16.309Z,34.55
2022-08-02T10:23:42.726Z,34.47
2022-08-02T10:26:09.108Z,34.42
2022-08-02T10:28:35.464Z,34.25
2022-08-02T10:31:01.832Z,34.26
2022-08-02T10:33:28.204Z,34.12
2022-08-02T10:36:07.562Z,33.91
2022-08-02T10:38:20.955Z,33.94
2022-08-02T10:40:47.366Z,34.15
2022-08-02T10:43:13.783Z,34.22
2022-08-02T10:45:40.176Z,34.13
2022-08-02T10:48:06.542Z,34.12
2022-08-02T10:50:32.936Z,33.99
2022-08-02T10:52:59.312Z,33.78
2022-08-02T10:55:25.751Z,33.58
2022-08-02T10:57:52.166Z,33.41
2022-08-02T11:00:19.504Z,33.32
2022-08-02T11:02:45.053Z,33.44
2022-08-02T11:05:11.478Z,33.47
2022-08-02T11:07:37.837Z,33.50
2022-08-02T11:10:04.229Z,33.53
2022-08-02T11:12:30.620Z,33.53
2022-08-02T11:14:56.997Z,33.60
2022-08-02T11:17:23.417Z,33.45
2022-08-02T11:19:49.777Z,33.32
2022-08-02T11:22:16.198Z,33.24
2022-08-02T11:24:42.570Z,33.19
2022-08-02T11:27:09.076Z,33.19
2022-08-02T11:29:38.193Z,33.24
2022-08-02T11:32:01.795Z,33.42
2022-08-02T11:34:37.659Z,33.64
2022-08-02T11:36:54.633Z,33.70
2022-08-02T11:39:21.020Z,33.71
2022-08-02T11:41:47.831Z,33.60
2022-08-02T11:44:13.749Z,33.57
2022-08-02T11:46:40.137Z,33.67
2022-08-02T11:49:08.547Z,33.70
2022-08-02T11:51:32.881Z,33.76
2022-08-02T11:53:59.285Z,33.87
2022-08-02T11:56:25.643Z,33.99
2022-08-02T11:58:52.089Z,34.07
2022-08-02T12:01:18.517Z,34.11
2022-08-02T12:03:45.012Z,34.15
2022-08-02T12:06:16.715Z,34.18
2022-08-02T12:08:37.686Z,34.16
2022-08-02T12:11:04.147Z,34.14
2022-08-02T12:13:30.582Z,34.13
2022-08-02T12:15:56.980Z,34.19
2022-08-02T12:18:23.345Z,34.23
2022-08-02T12:20:49.709Z,34.27
2022-08-02T12:23:16.210Z,34.32
2022-08-02T12:25:42.633Z,34.26
2022-08-02T12:28:09.077Z,34.16
2022-08-02T12:30:35.503Z,34.09
2022-08-02T12:33:01.953Z,34.09
2022-08-02T12:35:28.365Z,34.12
2022-08-02T12:37:54.758Z,34.18
2022-08-02T12:40:25.394Z,34.29
2022-08-02T12:42:47.546Z,34.40
2022-08-02T12:45:13.907Z,34.65
2022-08-02T12:47:40.281Z,34.92
2022-08-02T12:50:06.709Z,35.11
2022-08-02T12:52:33.084Z,35.29
2022-08-02T12:54:59.470Z,35.34
2022-08-02T12:57:25.863Z,35.30
2022-08-02T12:59:52.300Z,35.26
2022-08-02T13:02:19.114Z,35.02
2022-08-02T13:04:50.639Z,34.86
2022-08-02T13:07:11.466Z,34.71
2022-08-02T13:09:37.854Z,34.56
2022-08-02T13:12:04.221Z,34.41
2022-08-02T13:14:30.604Z,34.29
2022-08-02T13:16:57.014Z,34.18
2022-08-02T13:19:23.377Z,34.09
2022-08-02T13:22:02.754Z,33.97
2022-08-02T13:24:33.167Z,33.85
2022-08-02T13:26:42.594Z,33.76
2022-08-02T13:29:08.955Z,33.70
2022-08-02T13:31:36.813Z,33.61
2022-08-02T13:34:01.688Z,33.57
2022-08-02T13:36:28.054Z,33.51
2022-08-02T13:38:54.912Z,33.47
2022-08-02T13:41:21.299Z,33.41
2022-08-02T13:43:53.502Z,33.35
2022-08-02T13:46:14.115Z,33.20
2022-08-02T13:48:40.542Z,33.16
2022-08-02T13:51:06.907Z,33.01
2022-08-02T13:53:33.415Z,32.71
2022-08-02T13:55:59.846Z,32.72
2022-08-02T13:58:26.209Z,32.74
2022-08-02T14:00:52.602Z,32.84
2022-08-02T14:03:18.966Z,32.72
2022-08-02T14:05:48.083Z,32.65
2022-08-02T14:08:16.185Z,32.50
2022-08-02T14:10:38.194Z,32.22
2022-08-02T14:13:04.674Z,32.19
2022-08-02T14:15:31.108Z,32.14
2022-08-02T14:17:57.542Z,32.10
2022-08-02T14:20:30.218Z,32.08
2022-08-02T14:22:50.506Z,32.20
2022-08-02T14:25:16.879Z,32.26
2022-08-02T14:27:43.243Z,32.24
2022-08-02T14:30:09.629Z,32.19
2022-08-02T14:32:35.991Z,32.07
2022-08-02T14:35:02.477Z,31.74
2022-08-02T14:37:29.311Z,31.63
2022-08-02T14:40:00.156Z,31.63
2022-08-02T14:42:22.074Z,31.49
2022-08-02T14:44:48.524Z,31.51
2022-08-02T14:47:14.943Z,31.45
2022-08-02T14:49:42.884Z,31.53
2022-08-02T14:52:07.694Z,31.43
2022-08-02T14:54:34.136Z,31.37
2022-08-02T14:57:00.566Z,31.26
2022-08-02T14:59:26.940Z,31.18
2022-08-02T15:01:53.396Z,31.18
2022-08-02T15:04:19.712Z,31.25
2022-08-02T15:06:46.201Z,31.29
2022-08-02T15:09:12.591Z,31.33
2022-08-02T15:11:47.737Z,31.29
2022-08-02T15:14:05.467Z,31.20
2022-08-02T15:16:54.959Z,31.31
2022-08-02T15:18:58.165Z,31.28
2022-08-02T15:21:40.604Z,31.18
2022-08-02T15:23:51.037Z,31.08
2022-08-02T15:26:17.439Z,31.00
2022-08-02T15:28:43.996Z,30.92
2022-08-02T15:31:10.370Z,30.83
2022-08-02T15:33:36.773Z,30.77
2022-08-02T15:36:03.193Z,30.81
2022-08-02T15:38:29.554Z,30.73
2022-08-02T15:40:55.936Z,30.74
2022-08-02T15:43:22.393Z,30.70
2022-08-02T15:45:48.814Z,30.71
2022-08-02T15:48:15.209Z,30.63
2022-08-02T15:50:41.580Z,30.64
2022-08-02T15:53:08.535Z,30.62
2022-08-02T15:55:39.974Z,30.61
2022-08-02T15:58:01.297Z,30.43
2022-08-02T16:00:27.662Z,30.44
2022-08-02T16:02:54.057Z,30.36
2022-08-02T16:05:20.420Z,30.45
2022-08-02T16:07:46.837Z,30.42
2022-08-02T16:10:13.220Z,30.36
2022-08-02T16:12:39.697Z,30.42
2022-08-02T16:15:06.080Z,30.44
2022-08-02T16:17:53.428Z,30.38
2022-08-02T16:19:58.975Z,30.34
2022-08-02T16:22:25.422Z,30.30
2022-08-02T16:24:51.792Z,30.28
2022-08-02T16:27:18.180Z,30.25
2022-08-02T16:29:44.616Z,30.19
2022-08-02T16:32:11.293Z,30.12
2022-08-02T16:35:04.049Z,30.09
2022-08-02T16:37:03.815Z,30.07
2022-08-02T16:39:30.211Z,30.05
2022-08-02T16:41:56.602Z,30.02
2022-08-02T16:44:29.730Z,29.99
2022-08-02T16:46:50.849Z,29.96
2022-08-02T16:50:05.519Z,29.90
2022-08-02T16:51:42.454Z,29.87
2022-08-02T16:54:08.821Z,29.85
2022-08-02T16:56:35.272Z,29.85
2022-08-02T16:59:02.385Z,29.81
2022-08-02T17:02:11.037Z,29.76
2022-08-02T17:03:56.254Z,29.71
2022-08-02T17:06:20.865Z,29.63
2022-08-02T17:08:54.108Z,29.56
2022-08-02T17:11:13.667Z,29.51
2022-08-02T17:13:40.138Z,29.45
2022-08-02T17:16:26.238Z,29.39
2022-08-02T17:18:34.260Z,29.31
2022-08-02T17:20:59.292Z,29.24
2022-08-02T17:24:05.868Z,29.17
2022-08-02T17:25:52.616Z,29.12
2022-08-02T17:28:18.435Z,29.12
2022-08-02T17:30:44.808Z,29.12
2022-08-02T17:33:11.207Z,29.13
2022-08-02T17:35:51.930Z,29.13
2022-08-02T17:38:05.312Z,29.08
2022-08-02T17:40:30.398Z,29.06
2022-08-02T17:42:56.809Z,29.03
2022-08-02T17:45:25.911Z,28.97
2022-08-02T17:48:04.060Z,28.88
2022-08-02T17:50:16.207Z,28.81
2022-08-02T17:52:52.469Z,28.73
2022-08-02T17:55:08.820Z,28.67
2022-08-02T17:57:55.696Z,28.62
2022-08-02T18:00:04.170Z,28.58
2022-08-02T18:02:27.961Z,28.51
2022-08-02T18:04:54.355Z,28.47
2022-08-02T18:07:23.554Z,28.45
2022-08-02T18:09:47.163Z,28.41
2022-08-02T18:12:14.164Z,28.37
2022-08-02T18:14:48.812Z,28.35
2022-08-02T18:17:06.270Z,28.31
2022-08-02T18:19:33.127Z,28.28
2022-08-02T18:21:59.014Z,28.22
2022-08-02T18:24:25.384Z,28.15
2022-08-02T18:26:51.779Z,28.11
2022-08-02T18:29:18.171Z,28.06
2022-08-02T18:31:50.841Z,28.04
2022-08-02T18:34:10.940Z,28.00
2022-08-02T18:36:47.164Z,27.95
2022-08-02T18:39:07.774Z,27.93
2022-08-02T18:41:30.127Z,27.90
2022-08-02T18:43:56.498Z,27.87
2022-08-02T18:46:22.927Z,27.79
2022-08-02T18:48:49.320Z,27.74
2022-08-02T18:51:15.731Z,27.70
2022-08-02T18:56:08.511Z,27.60
2022-08-02T18:58:34.922Z,27.57
2022-08-02T19:01:05.126Z,27.54
2022-08-02T19:03:27.726Z,27.51
2022-08-02T19:05:54.415Z,27.44
2022-08-02T19:08:20.473Z,27.43
2022-08-02T19:10:49.986Z,27.40
2022-08-02T19:13:17.316Z,27.35
2022-08-02T19:15:39.716Z,27.30
2022-08-02T19:18:06.099Z,27.30
2022-08-02T19:20:32.569Z,27.29
2022-08-02T19:22:58.953Z,27.28
2022-08-02T19:25:27.845Z,27.25
2022-08-02T19:27:51.773Z,27.22
2022-08-02T19:30:18.140Z,27.19
2022-08-02T19:32:58.884Z,27.16
2022-08-02T19:35:19.344Z,27.05
2022-08-02T19:37:38.543Z,27.04
2022-08-02T19:40:03.677Z,26.96
2022-08-02T19:42:30.062Z,26.86
2022-08-02T19:44:56.430Z,26.86
2022-08-02T19:47:22.795Z,26.82
2022-08-02T19:49:49.281Z,26.79
2022-08-02T19:52:21.368Z,26.77
2022-08-02T19:54:55.689Z,26.81
2022-08-02T19:57:08.335Z,26.82
2022-08-02T19:59:34.733Z,26.72
2022-08-02T20:02:01.140Z,26.68
2022-08-02T20:04:27.497Z,26.71
2022-08-02T20:06:53.984Z,26.72
2022-08-02T20:09:22.262Z,26.71
2022-08-02T20:11:46.740Z,26.67
2022-08-02T20:14:13.302Z,26.66
2022-08-02T20:16:39.512Z,26.62
2022-08-02T20:19:06.289Z,26.59
2022-08-02T20:21:35.845Z,26.57
2022-08-02T20:23:58.621Z,26.56
2022-08-02T20:26:25.050Z,26.50
2022-08-02T20:28:51.402Z,26.41
2022-08-02T20:31:17.784Z,26.36
2022-08-02T20:33:55.943Z,26.42
2022-08-02T20:36:10.526Z,26.39
2022-08-02T20:38:36.895Z,26.40
2022-08-02T20:41:03.330Z,26.32
2022-08-02T20:43:31.310Z,26.29
2022-08-02T20:45:56.085Z,26.29
2022-08-02T20:48:22.484Z,26.28
2022-08-02T20:50:49.345Z,26.23
2022-08-02T20:53:24.026Z,26.15
2022-08-02T20:55:41.646Z,26.08
2022-08-02T20:58:11.659Z,26.05
2022-08-02T21:00:34.421Z,26.02
2022-08-02T21:03:00.833Z,26.02
2022-08-02T21:05:43.822Z,25.98
2022-08-02T21:07:55.023Z,25.95
2022-08-02T21:10:20.067Z,25.99
2022-08-02T21:12:46.553Z,25.94
2022-08-02T21:15:12.932Z,25.89
2022-08-02T21:17:47.506Z,25.88
2022-08-02T21:20:05.707Z,25.91
2022-08-02T21:22:32.118Z,25.87
2022-08-02T21:24:58.512Z,25.80
2022-08-02T21:27:53.428Z,25.75
2022-08-02T21:29:51.591Z,25.70
2022-08-02T21:32:18.230Z,25.60
2022-08-02T21:34:44.384Z,25.56
2022-08-02T21:37:10.760Z,25.54
2022-08-02T21:39:37.169Z,25.51
2022-08-02T21:42:03.645Z,25.48
2022-08-02T21:44:30.071Z,25.47
2022-08-02T21:46:56.449Z,25.50
2022-08-02T21:49:41.060Z,25.50
2022-08-02T21:51:50.318Z,25.46
2022-08-02T21:54:18.574Z,25.40
2022-08-02T21:56:42.079Z,25.43
2022-08-02T21:59:16.142Z,25.41
2022-08-02T22:01:34.869Z,25.38
2022-08-02T22:04:01.214Z,25.35
2022-08-02T22:06:27.665Z,25.28
2022-08-02T22:08:54.101Z,25.23
2022-08-02T22:11:20.536Z,25.17
2022-08-02T22:13:47.120Z,25.20
2022-08-02T22:16:13.298Z,25.22
2022-08-02T22:18:39.697Z,25.19
2022-08-02T22:21:14.501Z,25.16
2022-08-02T22:23:38.716Z,25.17
2022-08-02T22:25:58.965Z,25.05
2022-08-02T22:28:37.913Z,24.99
2022-08-02T22:30:52.516Z,25.07
2022-08-02T22:33:18.218Z,25.11
2022-08-02T22:35:44.659Z,25.09
2022-08-02T22:38:15.341Z,25.05
2022-08-02T22:40:37.526Z,25.04
2022-08-02T22:43:03.911Z,24.97
2022-08-02T22:45:30.254Z,24.83
2022-08-02T22:47:56.616Z,24.76
2022-08-02T22:50:23.075Z,24.82
2022-08-02T22:52:50.288Z,24.78
2022-08-02T22:55:15.749Z,24.76
2022-08-02T22:57:50.597Z,24.74
2022-08-02T22:58:58.310Z,27.64
2022-08-02T23:00:08.582Z,24.70
2022-08-02T23:02:34.940Z,24.66
2022-08-02T23:05:01.344Z,24.69
2022-08-02T23:07:27.776Z,24.70
2022-08-02T23:09:54.213Z,24.74
2022-08-02T23:12:20.573Z,24.77
2022-08-02T23:14:46.964Z,24.72
2022-08-02T23:17:13.407Z,24.72
2022-08-02T23:19:39.780Z,24.67
2022-08-02T23:22:06.140Z,24.60
2022-08-02T23:24:32.508Z,24.53
2022-08-02T23:26:58.877Z,24.47
2022-08-02T23:29:25.369Z,24.39
2022-08-02T23:31:51.747Z,24.29
2022-08-02T23:34:18.235Z,24.21
2022-08-02T23:36:44.591Z,24.17
2022-08-02T23:39:10.990Z,24.10
2022-08-02T23:41:37.363Z,24.05
2022-08-02T23:44:13.515Z,24.02
2022-08-02T23:46:30.196Z,24.01
2022-08-02T23:48:56.634Z,23.97
2022-08-02T23:51:22.990Z,23.92
2022-08-02T23:53:49.383Z,23.91
2022-08-02T23:56:15.840Z,23.88
2022-08-02T23:58:42.196Z,23.85
